createdAt,value
2018-07-23T00:00:15.639Z,99.90
2018-07-23T00:02:44.329Z,99.90
2018-07-23T00:07:41.275Z,99.90
2018-07-23T00:10:10.007Z,99.90
2018-07-23T00:12:38.703Z,99.90
2018-07-23T00:15:07.431Z,99.90
2018-07-23T00:17:36.161Z,99.90
2018-07-23T00:20:05.006Z,99.90
2018-07-23T00:22:33.714Z,99.90
2018-07-23T00:25:02.434Z,99.90
2018-07-23T00:29:59.570Z,99.90
2018-07-23T00:32:28.266Z,99.90
2018-07-23T00:34:56.956Z,99.90
2018-07-23T00:37:25.674Z,99.90
2018-07-23T00:39:54.362Z,99.90
2018-07-23T00:42:22.990Z,99.90
2018-07-23T00:44:51.702Z,99.90
2018-07-23T00:47:20.558Z,99.90
2018-07-23T00:49:49.284Z,99.90
2018-07-23T00:52:17.960Z,99.90
2018-07-23T00:54:46.756Z,99.90
2018-07-23T00:57:15.369Z,99.90
2018-07-23T00:59:44.044Z,99.90
2018-07-23T01:02:12.788Z,99.90
2018-07-23T01:04:41.491Z,99.90
2018-07-23T01:07:10.171Z,99.90
2018-07-23T01:12:07.189Z,99.90
2018-07-23T01:14:35.843Z,99.90
2018-07-23T01:19:32.831Z,99.90
2018-07-23T01:22:01.516Z,99.90
2018-07-23T01:24:30.215Z,99.90
2018-07-23T01:26:58.876Z,99.90
2018-07-23T01:31:55.854Z,99.90
2018-07-23T01:36:52.844Z,99.90
2018-07-23T01:39:21.528Z,99.90
2018-07-23T01:41:50.203Z,99.90
2018-07-23T01:44:18.925Z,99.90
2018-07-23T01:46:47.619Z,99.90
2018-07-23T01:49:16.315Z,99.90
2018-07-23T01:51:45.039Z,99.90
2018-07-23T01:54:13.713Z,99.90
2018-07-23T01:56:42.400Z,99.90
2018-07-23T01:59:11.054Z,99.90
2018-07-23T02:01:39.788Z,99.90
2018-07-23T02:04:08.623Z,99.90
2018-07-23T02:06:37.303Z,99.90
2018-07-23T02:09:08.878Z,99.90
2018-07-23T02:11:37.632Z,99.90
2018-07-23T02:14:06.366Z,99.90
2018-07-23T02:16:35.076Z,99.90
2018-07-23T02:19:03.880Z,99.90
2018-07-23T02:21:32.730Z,99.90
2018-07-23T02:24:01.466Z,99.90
2018-07-23T02:26:30.179Z,99.90
2018-07-23T02:28:58.867Z,99.90
2018-07-23T02:31:27.549Z,99.90
2018-07-23T02:33:56.194Z,99.90
2018-07-23T02:36:24.895Z,99.90
2018-07-23T02:38:53.593Z,99.90
2018-07-23T02:41:22.272Z,99.90
2018-07-23T02:43:50.962Z,99.90
2018-07-23T02:46:19.667Z,99.90
2018-07-23T02:48:48.334Z,99.90
2018-07-23T02:51:17.062Z,99.90
2018-07-23T02:53:45.751Z,99.90
2018-07-23T02:56:14.438Z,99.90
2018-07-23T02:58:43.126Z,99.90
2018-07-23T03:03:40.089Z,99.90
2018-07-23T03:06:08.762Z,99.90
2018-07-23T03:08:37.397Z,99.90
2018-07-23T03:11:06.133Z,99.90
2018-07-23T03:13:34.856Z,99.90
2018-07-23T03:16:03.602Z,99.90
2018-07-23T03:18:32.279Z,99.90
2018-07-23T03:21:00.958Z,99.90
2018-07-23T03:23:29.729Z,99.90
2018-07-23T03:25:58.374Z,99.90
2018-07-23T03:28:27.089Z,99.90
2018-07-23T03:30:55.758Z,99.90
2018-07-23T03:33:25.896Z,99.90
2018-07-23T03:35:54.564Z,99.90
2018-07-23T03:38:23.228Z,99.90
2018-07-23T03:40:51.946Z,99.90
2018-07-23T03:43:20.644Z,99.90
2018-07-23T03:45:49.350Z,99.90
2018-07-23T03:48:18.071Z,99.90
2018-07-23T03:50:46.768Z,99.90
2018-07-23T03:53:15.471Z,99.90
2018-07-23T03:55:44.216Z,99.90
2018-07-23T04:00:41.236Z,99.90
2018-07-23T04:03:09.929Z,99.90
2018-07-23T04:05:39.241Z,99.90
2018-07-23T04:08:07.968Z,99.90
2018-07-23T04:10:36.654Z,99.90
2018-07-23T04:13:05.350Z,99.90
2018-07-23T04:15:34.070Z,99.90
2018-07-23T04:18:03.648Z,99.90
2018-07-23T04:20:34.165Z,99.90
2018-07-23T04:23:03.684Z,99.90
2018-07-23T04:25:32.373Z,99.90
2018-07-23T04:28:01.470Z,99.90
2018-07-23T04:30:30.225Z,99.90
2018-07-23T04:32:58.892Z,99.90
2018-07-23T04:35:27.623Z,99.90
2018-07-23T04:37:56.462Z,99.90
2018-07-23T04:40:25.071Z,99.90
2018-07-23T04:42:53.827Z,99.90
2018-07-23T04:45:22.509Z,99.90
2018-07-23T04:47:51.211Z,99.90
2018-07-23T04:50:19.864Z,99.90
2018-07-23T04:52:48.590Z,99.90
2018-07-23T04:55:17.334Z,99.90
2018-07-23T04:57:46.020Z,99.90
2018-07-23T05:00:14.762Z,99.90
2018-07-23T05:02:43.434Z,99.90
2018-07-23T05:05:12.161Z,99.90
2018-07-23T05:07:40.864Z,99.90
2018-07-23T05:10:09.572Z,99.90
2018-07-23T05:12:38.246Z,99.90
2018-07-23T05:15:07.308Z,99.90
2018-07-23T05:17:36.016Z,99.90
2018-07-23T05:20:04.812Z,99.90
2018-07-23T05:22:33.537Z,99.90
2018-07-23T05:25:02.217Z,99.90
2018-07-23T05:27:30.943Z,99.90
2018-07-23T05:29:59.653Z,99.90
2018-07-23T05:32:28.471Z,99.90
2018-07-23T05:34:57.197Z,99.90
2018-07-23T05:37:25.931Z,99.90
2018-07-23T05:39:54.609Z,99.90
2018-07-23T05:42:23.307Z,99.90
2018-07-23T05:44:52.006Z,99.90
2018-07-23T05:47:20.746Z,99.90
2018-07-23T05:49:49.445Z,99.90
2018-07-23T05:52:18.095Z,99.90
2018-07-23T05:54:46.753Z,99.90
2018-07-23T05:57:15.426Z,99.90
2018-07-23T05:59:44.145Z,99.90
2018-07-23T06:02:12.800Z,99.90
2018-07-23T06:04:41.536Z,99.90
2018-07-23T06:07:10.247Z,99.90
2018-07-23T06:09:39.018Z,99.90
2018-07-23T06:12:07.800Z,99.90
2018-07-23T06:14:36.533Z,99.90
2018-07-23T06:17:05.604Z,99.90
2018-07-23T06:19:34.419Z,99.90
2018-07-23T06:22:03.069Z,99.90
2018-07-23T06:24:31.777Z,99.90
2018-07-23T06:27:00.464Z,99.90
2018-07-23T06:29:29.362Z,99.90
2018-07-23T06:31:58.108Z,99.90
2018-07-23T06:34:27.113Z,99.90
2018-07-23T06:36:55.844Z,99.90
2018-07-23T06:39:24.560Z,99.90
2018-07-23T06:41:53.270Z,99.90
2018-07-23T06:46:50.297Z,99.90
2018-07-23T06:49:18.976Z,99.90
2018-07-23T06:51:47.654Z,99.90
2018-07-23T06:54:16.395Z,99.90
2018-07-23T06:56:45.064Z,99.90
2018-07-23T06:59:13.785Z,99.90
2018-07-23T07:01:42.437Z,99.90
2018-07-23T07:04:11.178Z,99.90
2018-07-23T07:06:39.860Z,99.90
2018-07-23T07:09:09.523Z,99.90
2018-07-23T07:11:38.607Z,99.90
2018-07-23T07:14:07.862Z,99.90
2018-07-23T07:16:36.630Z,99.90
2018-07-23T07:19:05.300Z,99.90
2018-07-23T07:21:34.006Z,99.90
2018-07-23T07:24:02.712Z,99.90
2018-07-23T07:26:31.412Z,99.90
2018-07-23T07:29:00.209Z,99.50
2018-07-23T07:31:28.900Z,99.60
2018-07-23T07:33:57.592Z,99.10
2018-07-23T07:36:26.307Z,96.10
2018-07-23T07:38:54.984Z,95.90
2018-07-23T07:41:23.779Z,96.60
2018-07-23T07:43:52.494Z,96.00
2018-07-23T07:46:21.219Z,95.90
2018-07-23T07:48:49.910Z,95.40
2018-07-23T07:51:18.663Z,94.90
2018-07-23T07:53:47.371Z,95.10
2018-07-23T07:56:16.179Z,95.00
2018-07-23T07:58:44.894Z,95.30
2018-07-23T08:01:13.582Z,95.10
2018-07-23T08:03:42.286Z,95.20
2018-07-23T08:06:11.262Z,95.40
2018-07-23T08:08:39.991Z,94.80
2018-07-23T08:11:08.929Z,95.00
2018-07-23T08:13:37.615Z,94.60
2018-07-23T08:16:06.365Z,94.70
2018-07-23T08:18:35.125Z,94.70
2018-07-23T08:21:03.803Z,94.40
2018-07-23T08:23:32.581Z,94.00
2018-07-23T08:26:01.341Z,94.60
2018-07-23T08:28:30.079Z,94.40
2018-07-23T08:30:58.767Z,93.80
2018-07-23T08:33:27.531Z,94.50
2018-07-23T08:35:56.253Z,94.10
2018-07-23T08:38:25.045Z,93.90
2018-07-23T08:40:53.861Z,94.70
2018-07-23T08:43:22.591Z,94.10
2018-07-23T08:45:51.424Z,94.10
2018-07-23T08:48:20.129Z,94.10
2018-07-23T08:50:48.903Z,94.20
2018-07-23T08:53:17.591Z,94.10
2018-07-23T08:55:46.400Z,93.90
2018-07-23T08:58:15.193Z,94.10
2018-07-23T09:00:43.943Z,94.50
2018-07-23T09:03:12.727Z,94.10
2018-07-23T09:05:41.411Z,93.60
2018-07-23T09:08:10.143Z,93.30
2018-07-23T09:10:38.908Z,93.40
2018-07-23T09:13:07.675Z,93.30
2018-07-23T09:15:36.442Z,92.90
2018-07-23T09:18:05.328Z,93.20
2018-07-23T09:20:34.142Z,92.80
2018-07-23T09:23:02.830Z,92.90
2018-07-23T09:25:36.890Z,92.90
2018-07-23T09:28:05.710Z,92.70
2018-07-23T09:30:39.638Z,92.70
2018-07-23T09:33:08.469Z,92.70
2018-07-23T09:35:37.180Z,92.60
2018-07-23T09:38:06.051Z,92.60
2018-07-23T09:40:34.864Z,92.60
2018-07-23T09:43:04.095Z,92.30
2018-07-23T09:45:32.864Z,92.20
2018-07-23T09:48:01.596Z,92.20
2018-07-23T09:50:30.307Z,92.10
2018-07-23T09:52:59.041Z,91.90
2018-07-23T09:55:27.812Z,91.90
2018-07-23T09:57:56.566Z,92.20
2018-07-23T10:00:30.703Z,91.90
2018-07-23T10:02:59.523Z,92.10
2018-07-23T10:05:28.237Z,91.50
2018-07-23T10:07:56.959Z,92.20
2018-07-23T10:10:25.701Z,91.20
2018-07-23T10:12:54.549Z,91.70
2018-07-23T10:15:23.266Z,91.50
2018-07-23T10:17:52.078Z,91.50
2018-07-23T10:20:20.857Z,91.20
2018-07-23T10:22:49.574Z,91.40
2018-07-23T10:25:18.356Z,91.00
2018-07-23T10:27:47.302Z,91.00
2018-07-23T10:30:16.040Z,90.80
2018-07-23T10:32:44.827Z,91.80
2018-07-23T10:35:13.606Z,91.00
2018-07-23T10:37:42.279Z,90.90
2018-07-23T10:40:11.089Z,90.70
2018-07-23T10:42:39.794Z,90.60
2018-07-23T10:45:08.605Z,90.70
2018-07-23T10:47:37.357Z,90.40
2018-07-23T10:50:06.187Z,90.10
2018-07-23T10:52:34.994Z,90.00
2018-07-23T10:55:05.074Z,90.90
2018-07-23T10:57:33.836Z,90.90
2018-07-23T11:00:02.578Z,89.70
2018-07-23T11:02:31.332Z,90.40
2018-07-23T11:05:00.090Z,90.70
2018-07-23T11:07:28.841Z,89.80
2018-07-23T11:09:57.530Z,90.00
2018-07-23T11:12:26.378Z,89.40
2018-07-23T11:14:55.212Z,89.70
2018-07-23T11:17:24.082Z,89.50
2018-07-23T11:19:52.871Z,88.80
2018-07-23T11:22:21.724Z,88.30
2018-07-23T11:24:50.535Z,88.50
2018-07-23T11:27:19.304Z,89.40
2018-07-23T11:29:48.137Z,89.10
2018-07-23T11:32:16.934Z,88.60
2018-07-23T11:34:45.779Z,88.80
2018-07-23T11:37:14.604Z,87.20
2018-07-23T11:39:43.428Z,87.40
2018-07-23T11:42:12.143Z,87.60
2018-07-23T11:44:40.786Z,86.40
2018-07-23T11:47:09.578Z,87.40
2018-07-23T11:49:38.348Z,86.40
2018-07-23T11:52:14.354Z,85.30
2018-07-23T11:54:35.823Z,86.10
2018-07-23T11:57:04.745Z,85.00
2018-07-23T11:59:33.524Z,85.40
2018-07-23T12:02:02.285Z,86.10
2018-07-23T12:04:31.121Z,86.60
2018-07-23T12:06:59.794Z,86.00
2018-07-23T12:09:28.536Z,87.50
2018-07-23T12:11:57.444Z,86.40
2018-07-23T12:14:26.197Z,86.80
2018-07-23T12:16:54.985Z,85.60
2018-07-23T12:19:23.802Z,85.50
2018-07-23T12:21:52.480Z,83.80
2018-07-23T12:24:21.230Z,84.30
2018-07-23T12:26:49.974Z,83.80
2018-07-23T12:29:18.695Z,84.00
2018-07-23T12:31:47.427Z,83.10
2018-07-23T12:34:16.147Z,82.90
2018-07-23T12:36:44.941Z,82.70
2018-07-23T12:41:42.691Z,83.70
2018-07-23T12:44:11.797Z,82.90
2018-07-23T12:46:40.588Z,82.20
2018-07-23T12:49:09.386Z,82.70
2018-07-23T12:51:38.158Z,82.60
2018-07-23T12:54:06.956Z,82.50
2018-07-23T12:56:35.682Z,82.50
2018-07-23T12:59:04.404Z,81.40
2018-07-23T13:01:33.298Z,81.20
2018-07-23T13:04:02.066Z,80.60
2018-07-23T13:06:30.983Z,80.40
2018-07-23T13:08:59.780Z,80.10
2018-07-23T13:11:28.580Z,79.50
2018-07-23T13:13:57.398Z,81.00
2018-07-23T13:16:26.174Z,79.60
2018-07-23T13:18:54.985Z,79.10
2018-07-23T13:21:23.798Z,78.80
2018-07-23T13:23:52.719Z,78.80
2018-07-23T13:26:21.460Z,79.80
2018-07-23T13:28:50.277Z,78.40
2018-07-23T13:31:19.133Z,78.80
2018-07-23T13:33:47.943Z,78.20
2018-07-23T13:36:16.873Z,77.70
2018-07-23T13:38:45.676Z,76.90
2018-07-23T13:41:14.553Z,77.90
2018-07-23T13:43:43.392Z,77.20
2018-07-23T13:46:12.198Z,76.70
2018-07-23T13:48:40.954Z,76.20
2018-07-23T13:51:09.749Z,77.20
2018-07-23T13:53:38.541Z,76.40
2018-07-23T13:56:07.339Z,76.80
2018-07-23T14:01:04.505Z,75.50
2018-07-23T14:03:33.277Z,75.80
2018-07-23T14:06:02.163Z,77.30
2018-07-23T14:08:30.975Z,76.50
2018-07-23T14:10:59.864Z,75.70
2018-07-23T14:13:28.673Z,75.40
2018-07-23T14:15:57.476Z,75.80
2018-07-23T14:18:26.337Z,74.80
2018-07-23T14:20:55.169Z,75.70
2018-07-23T14:23:23.968Z,75.50
2018-07-23T14:25:52.780Z,74.70
2018-07-23T14:28:21.537Z,74.80
2018-07-23T14:30:50.347Z,74.60
2018-07-23T14:33:19.120Z,76.80
2018-07-23T14:35:47.921Z,74.60
2018-07-23T14:38:16.686Z,75.90
2018-07-23T14:40:45.520Z,75.80
2018-07-23T14:43:14.308Z,76.00
2018-07-23T14:45:43.106Z,75.60
2018-07-23T14:48:11.880Z,74.80
2018-07-23T14:50:40.680Z,75.00
2018-07-23T14:53:09.546Z,75.60
2018-07-23T14:55:38.329Z,75.50
2018-07-23T14:58:07.142Z,74.90
2018-07-23T15:00:35.911Z,74.30
2018-07-23T15:03:04.728Z,74.40
2018-07-23T15:05:33.454Z,74.10
2018-07-23T15:08:02.163Z,74.40
2018-07-23T15:10:30.939Z,74.20
2018-07-23T15:12:59.747Z,73.80
2018-07-23T15:15:28.563Z,75.00
2018-07-23T15:17:57.281Z,74.00
2018-07-23T15:20:26.093Z,73.90
2018-07-23T15:22:54.873Z,73.10
2018-07-23T15:25:23.648Z,74.30
2018-07-23T15:27:52.542Z,74.20
2018-07-23T15:30:21.285Z,74.90
2018-07-23T15:32:50.247Z,74.70
2018-07-23T15:35:19.133Z,75.10
2018-07-23T15:37:47.874Z,74.40
2018-07-23T15:40:16.663Z,75.30
2018-07-23T15:42:45.568Z,74.60
2018-07-23T15:45:14.420Z,74.40
2018-07-23T15:47:43.082Z,73.80
2018-07-23T15:50:11.904Z,73.40
2018-07-23T15:52:40.695Z,72.60
2018-07-23T15:55:09.390Z,72.80
2018-07-23T15:57:38.301Z,71.70
2018-07-23T16:00:07.183Z,71.80
2018-07-23T16:02:35.974Z,71.40
2018-07-23T16:05:04.785Z,71.40
2018-07-23T16:07:33.617Z,70.40
2018-07-23T16:10:02.425Z,70.90
2018-07-23T16:12:31.186Z,70.70
2018-07-23T16:15:00.038Z,71.70
2018-07-23T16:17:28.769Z,71.30
2018-07-23T16:19:57.892Z,72.00
2018-07-23T16:24:55.013Z,73.70
2018-07-23T16:27:23.854Z,74.60
2018-07-23T16:29:52.643Z,74.60
2018-07-23T16:34:49.777Z,75.90
2018-07-23T16:37:18.671Z,74.80
2018-07-23T16:39:47.423Z,75.30
2018-07-23T16:42:16.199Z,75.70
2018-07-23T16:44:44.972Z,75.80
2018-07-23T16:47:13.699Z,76.20
2018-07-23T16:49:42.378Z,76.20
2018-07-23T16:52:11.197Z,77.40
2018-07-23T16:54:39.907Z,76.80
2018-07-23T16:57:08.761Z,76.20
2018-07-23T16:59:37.683Z,76.70
2018-07-23T17:02:06.796Z,77.90
2018-07-23T17:04:35.532Z,77.50
2018-07-23T17:07:04.344Z,77.20
2018-07-23T17:09:33.171Z,77.90
2018-07-23T17:12:01.789Z,77.20
2018-07-23T17:14:30.517Z,77.40
2018-07-23T17:16:59.270Z,77.50
2018-07-23T17:19:27.984Z,78.70
2018-07-23T17:21:56.826Z,79.00
2018-07-23T17:24:25.677Z,78.20
2018-07-23T17:26:54.453Z,78.60
2018-07-23T17:29:23.262Z,79.90
2018-07-23T17:31:52.077Z,79.20
2018-07-23T17:34:20.939Z,79.70
2018-07-23T17:36:49.701Z,79.80
2018-07-23T17:39:18.487Z,80.00
2018-07-23T17:41:47.337Z,79.70
2018-07-23T17:44:16.012Z,79.50
2018-07-23T17:46:44.750Z,81.90
2018-07-23T17:49:13.516Z,80.00
2018-07-23T17:51:42.367Z,80.70
2018-07-23T17:54:11.203Z,81.00
2018-07-23T17:56:39.949Z,81.20
2018-07-23T17:59:08.780Z,81.90
2018-07-23T18:01:37.639Z,81.60
2018-07-23T18:04:06.429Z,81.50
2018-07-23T18:06:35.165Z,81.50
2018-07-23T18:09:05.863Z,82.60
2018-07-23T18:11:34.645Z,82.40
2018-07-23T18:14:03.397Z,82.60
2018-07-23T18:16:33.649Z,82.90
2018-07-23T18:19:02.489Z,82.90
2018-07-23T18:21:31.384Z,83.10
2018-07-23T18:24:00.133Z,83.10
2018-07-23T18:26:28.895Z,83.30
2018-07-23T18:28:57.728Z,82.80
2018-07-23T18:31:26.510Z,82.90
2018-07-23T18:33:55.271Z,83.00
2018-07-23T18:36:24.202Z,83.20
2018-07-23T18:38:53.055Z,83.70
2018-07-23T18:41:21.776Z,84.90
2018-07-23T18:43:51.478Z,83.30
2018-07-23T18:46:20.248Z,85.20
2018-07-23T18:49:41.136Z,86.30
2018-07-23T18:52:10.006Z,84.20
2018-07-23T18:54:39.205Z,84.80
2018-07-23T18:57:08.473Z,86.00
2018-07-23T18:59:37.364Z,88.00
2018-07-23T19:02:07.581Z,87.10
2018-07-23T19:04:36.431Z,87.50
2018-07-23T19:07:05.750Z,87.40
2018-07-23T19:09:34.529Z,86.80
2018-07-23T19:12:03.315Z,87.60
2018-07-23T19:14:32.127Z,88.60
2018-07-23T19:17:02.052Z,89.80
2018-07-23T19:19:30.810Z,90.30
2018-07-23T19:21:59.630Z,90.40
2018-07-23T19:24:28.432Z,90.30
2018-07-23T19:26:57.202Z,90.60
2018-07-23T19:29:25.961Z,90.90
2018-07-23T19:31:54.731Z,91.20
2018-07-23T19:34:23.599Z,91.40
2018-07-23T19:36:52.739Z,91.40
2018-07-23T19:41:50.593Z,91.90
2018-07-23T19:44:19.372Z,92.50
2018-07-23T19:46:48.099Z,92.60
2018-07-23T19:49:16.863Z,92.80
2018-07-23T19:51:45.696Z,93.20
2018-07-23T19:54:14.463Z,93.10
2018-07-23T19:56:43.189Z,93.10
2018-07-23T19:59:11.950Z,93.50
2018-07-23T20:01:40.729Z,94.10
2018-07-23T20:04:09.517Z,94.00
2018-07-23T20:09:09.170Z,93.90
2018-07-23T20:11:37.898Z,93.90
2018-07-23T20:14:06.765Z,94.60
2018-07-23T20:16:35.522Z,94.70
2018-07-23T20:19:04.416Z,94.80
2018-07-23T20:21:33.153Z,94.70
2018-07-23T20:24:02.723Z,94.80
2018-07-23T20:26:31.457Z,96.20
2018-07-23T20:29:00.321Z,95.60
2018-07-23T20:31:29.075Z,95.60
2018-07-23T20:33:57.827Z,95.00
2018-07-23T20:36:26.518Z,95.00
2018-07-23T20:38:55.456Z,95.10
2018-07-23T20:41:24.214Z,95.40
2018-07-23T20:43:52.959Z,95.50
2018-07-23T20:46:21.701Z,95.70
2018-07-23T20:48:50.447Z,96.00
2018-07-23T20:51:19.139Z,96.60
2018-07-23T20:53:47.880Z,96.20
2018-07-23T20:56:16.624Z,96.10
2018-07-23T20:58:45.309Z,96.50
2018-07-23T21:01:14.990Z,96.80
2018-07-23T21:03:43.741Z,96.80
2018-07-23T21:08:40.806Z,96.70
2018-07-23T21:11:09.938Z,96.70
2018-07-23T21:13:38.627Z,96.80
2018-07-23T21:16:07.403Z,96.70
2018-07-23T21:18:36.115Z,96.80
2018-07-23T21:21:04.901Z,96.70
2018-07-23T21:23:33.614Z,96.70
2018-07-23T21:26:02.352Z,96.90
2018-07-23T21:31:00.035Z,96.90
2018-07-23T21:33:28.829Z,96.90
2018-07-23T21:35:57.610Z,97.10
2018-07-23T21:38:26.321Z,97.40
2018-07-23T21:43:23.440Z,97.20
2018-07-23T21:45:52.191Z,97.30
2018-07-23T21:48:20.890Z,97.40
2018-07-23T21:50:49.571Z,97.50
2018-07-23T21:53:18.277Z,97.70
2018-07-23T21:55:46.974Z,97.90
2018-07-23T21:58:15.697Z,98.00
2018-07-23T22:00:44.505Z,98.10
2018-07-23T22:03:13.255Z,98.10
2018-07-23T22:05:41.976Z,98.20
2018-07-23T22:08:10.761Z,98.20
2018-07-23T22:10:39.521Z,98.20
2018-07-23T22:13:08.301Z,98.20
2018-07-23T22:15:37.011Z,98.20
2018-07-23T22:18:06.196Z,98.20
2018-07-23T22:20:34.975Z,98.20
2018-07-23T22:23:03.741Z,98.20
2018-07-23T22:25:32.509Z,98.20
2018-07-23T22:28:01.297Z,98.20
2018-07-23T22:30:30.101Z,98.20
2018-07-23T22:32:58.798Z,98.10
2018-07-23T22:35:27.513Z,98.20
2018-07-23T22:37:56.277Z,98.30
2018-07-23T22:40:24.967Z,98.20
2018-07-23T22:42:53.691Z,98.20
2018-07-23T22:45:22.501Z,98.10
2018-07-23T22:47:51.249Z,98.10
2018-07-23T22:50:20.010Z,97.90
2018-07-23T22:52:48.700Z,98.00
2018-07-23T22:55:17.491Z,98.10
2018-07-23T22:57:46.219Z,98.20
2018-07-23T23:00:14.994Z,98.40
2018-07-23T23:02:43.779Z,98.60
2018-07-23T23:05:12.504Z,98.80
2018-07-23T23:07:41.200Z,99.00
2018-07-23T23:10:09.908Z,99.00
2018-07-23T23:12:38.653Z,99.00
2018-07-23T23:15:07.438Z,99.20
2018-07-23T23:17:36.203Z,99.20
2018-07-23T23:20:05.064Z,99.30
2018-07-23T23:22:33.796Z,99.40
2018-07-23T23:25:02.579Z,99.20
2018-07-23T23:27:31.280Z,99.30
2018-07-23T23:30:00.086Z,99.10
2018-07-23T23:32:28.927Z,99.20
2018-07-23T23:34:57.971Z,99.20
2018-07-23T23:37:26.685Z,99.30
2018-07-23T23:39:55.398Z,99.20
2018-07-23T23:42:24.143Z,99.40
2018-07-23T23:44:52.857Z,99.50
2018-07-23T23:47:21.558Z,99.40
2018-07-23T23:49:50.262Z,99.30
2018-07-23T23:52:19.033Z,99.40
2018-07-23T23:54:47.728Z,99.40
2018-07-23T23:57:16.430Z,99.60
2018-07-23T23:59:45.121Z,99.10
